createdAt,value
2023-05-08T00:00:43.645Z,92.40
2023-05-08T00:01:43.673Z,92.40
2023-05-08T00:02:43.693Z,92.50
2023-05-08T00:03:43.798Z,92.70
2023-05-08T00:04:43.684Z,92.50
2023-05-08T00:05:43.650Z,92.29
2023-05-08T00:06:43.604Z,92.40
2023-05-08T00:07:43.609Z,92.40
2023-05-08T00:08:43.609Z,92.29
2023-05-08T00:09:43.589Z,92.04
2023-05-08T00:10:43.617Z,92.40
2023-05-08T00:11:43.585Z,92.80
2023-05-08T00:12:43.629Z,92.70
2023-05-08T00:13:43.555Z,92.80
2023-05-08T00:14:43.576Z,92.91
2023-05-08T00:15:43.562Z,92.70
2023-05-08T00:16:43.576Z,92.80
2023-05-08T00:17:43.636Z,92.80
2023-05-08T00:18:43.528Z,92.50
2023-05-08T00:19:43.529Z,92.80
2023-05-08T00:20:43.516Z,92.70
2023-05-08T00:21:43.518Z,92.91
2023-05-08T00:22:43.529Z,92.95
2023-05-08T00:23:43.538Z,92.74
2023-05-08T00:24:43.494Z,92.54
2023-05-08T00:25:43.484Z,92.91
2023-05-08T00:26:43.467Z,92.80
2023-05-08T00:27:43.510Z,93.32
2023-05-08T00:28:43.475Z,93.32
2023-05-08T00:29:43.472Z,93.12
2023-05-08T00:30:43.468Z,93.32
2023-05-08T00:31:43.527Z,93.21
2023-05-08T00:32:43.493Z,93.21
2023-05-08T00:33:43.464Z,93.26
2023-05-08T00:34:43.428Z,93.46
2023-05-08T00:35:43.456Z,93.26
2023-05-08T00:36:43.416Z,93.16
2023-05-08T00:37:43.407Z,93.36
2023-05-08T00:38:43.393Z,93.46
2023-05-08T00:39:43.421Z,93.77
2023-05-08T00:40:43.402Z,93.57
2023-05-08T00:41:43.386Z,93.67
2023-05-08T00:42:43.397Z,93.67
2023-05-08T00:43:43.404Z,93.46
2023-05-08T00:44:43.377Z,93.77
2023-05-08T00:45:43.364Z,94.29
2023-05-08T00:46:43.415Z,93.77
2023-05-08T00:47:43.438Z,93.87
2023-05-08T00:48:43.358Z,94.43
2023-05-08T00:49:43.346Z,94.43
2023-05-08T00:50:43.345Z,94.43
2023-05-08T00:51:43.345Z,94.12
2023-05-08T00:52:43.342Z,94.74
2023-05-08T00:53:43.355Z,94.58
2023-05-08T00:54:43.293Z,94.89
2023-05-08T00:55:43.341Z,94.68
2023-05-08T00:56:43.297Z,94.68
2023-05-08T00:57:43.302Z,94.68
2023-05-08T00:58:43.292Z,94.64
2023-05-08T00:59:43.294Z,94.54
2023-05-08T01:00:43.300Z,94.54
2023-05-08T01:01:43.305Z,94.68
2023-05-08T01:02:43.338Z,94.84
2023-05-08T01:03:43.404Z,95.09
2023-05-08T01:04:43.276Z,94.78
2023-05-08T01:05:43.267Z,94.89
2023-05-08T01:06:43.240Z,95.09
2023-05-08T01:07:43.304Z,94.89
2023-05-08T01:08:43.240Z,95.20
2023-05-08T01:09:43.254Z,95.50
2023-05-08T01:10:43.230Z,95.36
2023-05-08T01:11:43.218Z,95.40
2023-05-08T01:12:43.310Z,95.92
2023-05-08T01:13:43.289Z,95.92
2023-05-08T01:14:43.211Z,95.81
2023-05-08T01:15:43.264Z,95.71
2023-05-08T01:16:43.187Z,95.81
2023-05-08T01:17:43.225Z,95.81
2023-05-08T01:18:43.169Z,95.92
2023-05-08T01:19:43.182Z,95.50
2023-05-08T01:20:43.206Z,95.40
2023-05-08T01:21:43.225Z,95.61
2023-05-08T01:22:43.186Z,95.71
2023-05-08T01:23:43.153Z,95.65
2023-05-08T01:24:43.158Z,95.86
2023-05-08T01:25:43.139Z,95.86
2023-05-08T01:26:43.147Z,95.92
2023-05-08T01:27:43.196Z,96.64
2023-05-08T01:28:43.106Z,96.37
2023-05-08T01:29:43.123Z,96.37
2023-05-08T01:30:43.129Z,96.33
2023-05-08T01:31:43.106Z,96.47
2023-05-08T01:32:43.149Z,96.78
2023-05-08T01:33:43.135Z,96.68
2023-05-08T01:34:43.101Z,96.68
2023-05-08T01:35:43.115Z,96.37
2023-05-08T01:36:43.067Z,96.68
2023-05-08T01:37:43.101Z,96.17
2023-05-08T01:38:43.051Z,96.37
2023-05-08T01:39:43.081Z,96.78
2023-05-08T01:40:43.057Z,96.47
2023-05-08T01:41:43.084Z,96.89
2023-05-08T01:42:43.066Z,97.09
2023-05-08T01:43:43.059Z,96.78
2023-05-08T01:44:43.023Z,96.47
2023-05-08T01:45:43.086Z,97.09
2023-05-08T01:46:43.039Z,96.78
2023-05-08T01:47:43.084Z,96.89
2023-05-08T01:48:43.558Z,97.19
2023-05-08T01:49:43.047Z,96.89
2023-05-08T01:50:43.000Z,96.89
2023-05-08T01:51:43.005Z,96.27
2023-05-08T01:52:42.979Z,95.96
2023-05-08T01:53:42.989Z,96.68
2023-05-08T01:54:42.994Z,96.12
2023-05-08T01:55:42.992Z,96.53
2023-05-08T01:56:43.002Z,96.17
2023-05-08T01:57:42.975Z,95.96
2023-05-08T01:58:42.965Z,96.02
2023-05-08T01:59:43.006Z,95.92
2023-05-08T02:00:42.945Z,96.33
2023-05-08T02:01:42.935Z,96.22
2023-05-08T02:02:43.102Z,95.92
2023-05-08T02:03:42.962Z,96.22
2023-05-08T02:04:42.930Z,95.61
2023-05-08T02:05:42.961Z,96.53
2023-05-08T02:06:42.924Z,96.12
2023-05-08T02:07:42.898Z,96.02
2023-05-08T02:08:42.899Z,96.02
2023-05-08T02:09:42.929Z,95.96
2023-05-08T02:10:42.888Z,96.33
2023-05-08T02:11:42.915Z,95.65
2023-05-08T02:12:42.936Z,95.96
2023-05-08T02:13:42.880Z,95.61
2023-05-08T02:14:42.842Z,95.65
2023-05-08T02:15:42.861Z,95.65
2023-05-08T02:16:42.857Z,96.17
2023-05-08T02:17:42.885Z,95.65
2023-05-08T02:18:42.849Z,96.06
2023-05-08T02:19:42.833Z,96.06
2023-05-08T02:20:42.840Z,96.06
2023-05-08T02:21:42.823Z,95.61
2023-05-08T02:22:42.800Z,95.30
2023-05-08T02:23:42.814Z,95.71
2023-05-08T02:24:42.804Z,95.34
2023-05-08T02:25:42.894Z,95.45
2023-05-08T02:26:42.778Z,95.92
2023-05-08T02:27:42.783Z,96.17
2023-05-08T02:28:42.771Z,96.27
2023-05-08T02:29:42.774Z,96.17
2023-05-08T02:30:42.732Z,95.65
2023-05-08T02:31:42.801Z,95.65
2023-05-08T02:32:42.743Z,95.86
2023-05-08T02:33:42.756Z,95.86
2023-05-08T02:34:51.169Z,96.06
2023-05-08T02:35:43.757Z,95.96
2023-05-08T02:36:42.762Z,95.96
2023-05-08T02:37:42.805Z,96.06
2023-05-08T02:38:42.703Z,95.90
2023-05-08T02:39:42.687Z,96.47
2023-05-08T02:40:42.673Z,96.06
2023-05-08T02:41:42.755Z,95.86
2023-05-08T02:42:42.686Z,96.06
2023-05-08T02:43:42.663Z,96.27
2023-05-08T02:44:42.652Z,95.55
2023-05-08T02:45:42.677Z,96.27
2023-05-08T02:46:42.779Z,96.68
2023-05-08T02:47:42.689Z,96.42
2023-05-08T02:48:42.621Z,96.58
2023-05-08T02:49:42.637Z,96.52
2023-05-08T02:50:42.604Z,96.21
2023-05-08T02:51:42.642Z,96.52
2023-05-08T02:52:42.626Z,96.11
2023-05-08T02:53:42.618Z,96.47
2023-05-08T02:54:42.583Z,96.47
2023-05-08T02:55:42.614Z,96.47
2023-05-08T02:56:42.598Z,96.17
2023-05-08T02:57:42.609Z,96.21
2023-05-08T02:58:42.596Z,96.47
2023-05-08T02:59:42.561Z,96.62
2023-05-08T03:00:42.560Z,96.31
2023-05-08T03:01:42.580Z,96.72
2023-05-08T03:02:42.607Z,96.68
2023-05-08T03:03:42.696Z,96.62
2023-05-08T03:04:42.545Z,96.58
2023-05-08T03:05:42.526Z,96.68
2023-05-08T03:06:42.529Z,96.62
2023-05-08T03:07:42.546Z,96.42
2023-05-08T03:08:42.524Z,96.11
2023-05-08T03:09:42.536Z,96.83
2023-05-08T03:10:42.523Z,96.21
2023-05-08T03:11:42.488Z,96.62
2023-05-08T03:12:42.845Z,95.90
2023-05-08T03:13:42.475Z,96.62
2023-05-08T03:14:42.496Z,96.62
2023-05-08T03:15:42.511Z,96.62
2023-05-08T03:16:42.480Z,96.52
2023-05-08T03:17:42.486Z,96.72
2023-05-08T03:18:42.461Z,96.83
2023-05-08T03:19:42.458Z,96.62
2023-05-08T03:20:42.414Z,96.52
2023-05-08T03:21:42.449Z,96.42
2023-05-08T03:22:42.453Z,96.52
2023-05-08T03:23:42.435Z,96.93
2023-05-08T03:24:42.421Z,96.31
2023-05-08T03:25:42.413Z,96.93
2023-05-08T03:26:42.414Z,96.56
2023-05-08T03:27:42.423Z,96.62
2023-05-08T03:28:42.385Z,96.62
2023-05-08T03:29:42.402Z,96.52
2023-05-08T03:30:42.418Z,96.52
2023-05-08T03:31:42.524Z,97.03
2023-05-08T03:32:42.410Z,96.42
2023-05-08T03:33:42.402Z,97.03
2023-05-08T03:34:42.347Z,97.39
2023-05-08T03:35:42.376Z,96.77
2023-05-08T03:36:42.335Z,96.72
2023-05-08T03:37:42.345Z,96.52
2023-05-08T03:38:42.312Z,96.93
2023-05-08T03:39:42.341Z,97.24
2023-05-08T03:40:42.322Z,96.21
2023-05-08T03:41:42.332Z,97.03
2023-05-08T03:42:42.298Z,97.03
2023-05-08T03:43:42.311Z,96.72
2023-05-08T03:44:42.295Z,97.03
2023-05-08T03:45:42.305Z,96.93
2023-05-08T03:46:42.465Z,96.93
2023-05-08T03:47:42.517Z,96.72
2023-05-08T03:48:42.269Z,96.52
2023-05-08T03:49:42.314Z,96.52
2023-05-08T03:50:42.253Z,96.83
2023-05-08T03:51:42.255Z,97.24
2023-05-08T03:52:42.255Z,97.34
2023-05-08T03:53:42.308Z,97.44
2023-05-08T03:54:42.228Z,97.28
2023-05-08T03:55:43.089Z,97.03
2023-05-08T03:56:42.223Z,97.34
2023-05-08T03:57:42.233Z,97.28
2023-05-08T03:58:42.217Z,97.65
2023-05-08T03:59:42.229Z,97.14
2023-05-08T04:00:42.212Z,97.24
2023-05-08T04:01:42.252Z,96.72
2023-05-08T04:02:42.536Z,96.72
2023-05-08T04:03:42.260Z,96.83
2023-05-08T04:04:42.194Z,97.34
2023-05-08T04:05:42.198Z,97.03
2023-05-08T04:06:49.557Z,97.03
2023-05-08T04:07:43.187Z,97.24
2023-05-08T04:08:42.172Z,96.93
2023-05-08T04:09:42.154Z,96.72
2023-05-08T04:10:42.177Z,96.47
2023-05-08T04:11:42.158Z,96.62
2023-05-08T04:12:42.184Z,97.14
2023-05-08T04:13:42.131Z,96.93
2023-05-08T04:14:42.115Z,96.42
2023-05-08T04:15:42.115Z,96.93
2023-05-08T04:16:42.250Z,96.37
2023-05-08T04:17:42.176Z,95.96
2023-05-08T04:18:42.086Z,96.37
2023-05-08T04:19:42.096Z,96.27
2023-05-08T04:20:42.455Z,96.27
2023-05-08T04:21:42.220Z,96.27
2023-05-08T04:22:42.099Z,95.96
2023-05-08T04:23:42.109Z,95.03
2023-05-08T04:24:42.081Z,95.20
2023-05-08T04:25:42.086Z,95.71
2023-05-08T04:26:42.044Z,94.78
2023-05-08T04:27:42.105Z,94.99
2023-05-08T04:28:42.057Z,94.48
2023-05-08T04:29:42.045Z,94.48
2023-05-08T04:30:42.042Z,94.37
2023-05-08T04:31:42.099Z,93.92
2023-05-08T04:32:44.816Z,93.26
2023-05-08T04:33:42.064Z,93.16
2023-05-08T04:34:41.997Z,92.99
2023-05-08T04:35:42.011Z,93.36
2023-05-08T04:36:41.984Z,92.99
2023-05-08T04:37:42.018Z,93.36
2023-05-08T04:38:41.977Z,93.92
2023-05-08T04:39:43.737Z,93.82
2023-05-08T04:40:41.978Z,94.23
2023-05-08T04:41:42.034Z,93.92
2023-05-08T04:42:41.965Z,94.23
2023-05-08T04:43:41.969Z,94.54
2023-05-08T04:44:41.935Z,94.12
2023-05-08T04:45:41.965Z,94.08
2023-05-08T04:46:41.988Z,93.61
2023-05-08T04:47:41.962Z,93.36
2023-05-08T04:48:41.954Z,93.40
2023-05-08T04:49:41.950Z,93.36
2023-05-08T04:50:41.924Z,92.85
2023-05-08T04:51:41.963Z,92.85
2023-05-08T04:52:41.908Z,92.85
2023-05-08T04:53:41.915Z,93.77
2023-05-08T04:54:41.965Z,93.67
2023-05-08T04:55:41.934Z,93.52
2023-05-08T04:56:41.905Z,92.29
2023-05-08T04:57:41.905Z,92.54
2023-05-08T04:58:41.865Z,92.91
2023-05-08T04:59:41.915Z,92.19
2023-05-08T05:00:41.859Z,92.40
2023-05-08T05:01:41.891Z,91.88
2023-05-08T05:02:41.883Z,92.04
2023-05-08T05:03:41.937Z,90.85
2023-05-08T05:04:41.831Z,90.85
2023-05-08T05:05:41.868Z,91.88
2023-05-08T05:06:41.857Z,91.78
2023-05-08T05:07:41.853Z,92.04
2023-05-08T05:08:41.838Z,91.53
2023-05-08T05:09:41.817Z,91.33
2023-05-08T05:10:41.810Z,90.91
2023-05-08T05:11:41.832Z,90.81
2023-05-08T05:12:41.858Z,91.63
2023-05-08T05:13:41.818Z,91.42
2023-05-08T05:14:41.761Z,92.66
2023-05-08T05:15:41.823Z,91.02
2023-05-08T05:16:41.800Z,92.55
2023-05-08T05:17:41.827Z,91.42
2023-05-08T05:18:41.756Z,91.74
2023-05-08T05:19:41.795Z,92.00
2023-05-08T05:20:41.760Z,91.63
2023-05-08T05:21:41.750Z,91.90
2023-05-08T05:22:41.719Z,91.08
2023-05-08T05:23:41.760Z,90.97
2023-05-08T05:24:41.712Z,90.73
2023-05-08T05:25:41.722Z,89.81
2023-05-08T05:26:41.703Z,89.64
2023-05-08T05:27:41.707Z,90.93
2023-05-08T05:28:41.687Z,89.87
2023-05-08T05:29:41.718Z,88.84
2023-05-08T05:30:41.703Z,87.92
2023-05-08T05:31:41.695Z,89.90
2023-05-08T05:32:41.717Z,90.11
2023-05-08T05:33:41.682Z,88.78
2023-05-08T05:34:41.654Z,88.74
2023-05-08T05:35:41.689Z,89.76
2023-05-08T05:36:41.623Z,89.66
2023-05-08T05:37:41.649Z,88.74
2023-05-08T05:38:41.642Z,89.36
2023-05-08T05:39:41.641Z,89.56
2023-05-08T05:40:41.597Z,89.15
2023-05-08T05:41:41.642Z,88.74
2023-05-08T05:42:41.586Z,88.94
2023-05-08T05:43:41.609Z,88.43
2023-05-08T05:44:41.591Z,89.90
2023-05-08T05:45:41.601Z,89.15
2023-05-08T05:46:44.121Z,89.45
2023-05-08T05:47:41.620Z,89.36
2023-05-08T05:48:42.106Z,88.90
2023-05-08T05:49:41.584Z,88.35
2023-05-08T05:50:41.564Z,87.02
2023-05-08T05:51:41.554Z,87.63
2023-05-08T05:52:41.520Z,88.39
2023-05-08T05:53:41.559Z,88.29
2023-05-08T05:54:41.510Z,88.49
2023-05-08T05:55:41.532Z,87.84
2023-05-08T05:56:41.505Z,86.65
2023-05-08T05:57:41.535Z,86.71
2023-05-08T05:58:41.497Z,87.37
2023-05-08T05:59:41.490Z,86.55
2023-05-08T06:00:41.469Z,86.81
2023-05-08T06:01:41.549Z,86.96
2023-05-08T06:02:41.563Z,87.16
2023-05-08T06:03:41.548Z,88.08
2023-05-08T06:04:41.470Z,86.71
2023-05-08T06:05:41.462Z,86.51
2023-05-08T06:06:41.463Z,86.91
2023-05-08T06:07:41.446Z,87.02
2023-05-08T06:08:41.421Z,86.51
2023-05-08T06:09:41.428Z,86.98
2023-05-08T06:10:41.427Z,86.81
2023-05-08T06:11:41.408Z,86.61
2023-05-08T06:12:41.428Z,86.51
2023-05-08T06:13:41.424Z,86.51
2023-05-08T06:14:41.376Z,86.67
2023-05-08T06:15:41.395Z,85.55
2023-05-08T06:16:41.403Z,86.57
2023-05-08T06:17:41.444Z,86.36
2023-05-08T06:18:41.347Z,86.83
2023-05-08T06:19:41.361Z,85.24
2023-05-08T06:20:41.331Z,86.02
2023-05-08T06:21:41.342Z,86.38
2023-05-08T06:22:41.374Z,84.65
2023-05-08T06:23:41.359Z,84.20
2023-05-08T06:24:41.310Z,84.34
2023-05-08T06:25:41.310Z,84.95
2023-05-08T06:26:41.287Z,85.97
2023-05-08T06:27:41.306Z,84.61
2023-05-08T06:28:41.308Z,84.61
2023-05-08T06:29:41.280Z,83.59
2023-05-08T06:30:41.372Z,84.44
2023-05-08T06:31:41.274Z,84.44
2023-05-08T06:32:41.297Z,84.00
2023-05-08T06:33:41.282Z,84.00
2023-05-08T06:34:41.251Z,83.54
2023-05-08T06:35:41.250Z,82.93
2023-05-08T06:36:41.248Z,82.83
2023-05-08T06:37:41.239Z,83.07
2023-05-08T06:38:41.241Z,83.42
2023-05-08T06:39:41.237Z,84.41
2023-05-08T06:40:41.210Z,82.46
2023-05-08T06:41:41.216Z,83.38
2023-05-08T06:42:41.215Z,83.04
2023-05-08T06:43:41.219Z,81.81
2023-05-08T06:44:41.174Z,82.12
2023-05-08T06:45:41.192Z,82.73
2023-05-08T06:46:41.235Z,82.18
2023-05-08T06:47:41.271Z,81.63
2023-05-08T06:48:41.196Z,80.00
2023-05-08T06:49:41.155Z,81.46
2023-05-08T06:50:41.148Z,80.61
2023-05-08T06:51:41.152Z,80.82
2023-05-08T06:52:41.125Z,81.73
2023-05-08T06:53:41.193Z,79.96
2023-05-08T06:54:41.120Z,79.04
2023-05-08T06:55:41.144Z,78.91
2023-05-08T06:56:41.120Z,78.19
2023-05-08T06:57:41.113Z,78.66
2023-05-08T06:58:41.091Z,78.36
2023-05-08T06:59:41.104Z,77.81
2023-05-08T07:00:41.060Z,78.09
2023-05-08T07:01:41.143Z,78.91
2023-05-08T07:02:41.083Z,80.02
2023-05-08T07:03:41.081Z,79.62
2023-05-08T07:04:41.074Z,78.56
2023-05-08T07:05:41.047Z,77.17
2023-05-08T07:06:41.026Z,77.20
2023-05-08T07:07:41.040Z,76.39
2023-05-08T07:08:40.997Z,77.98
2023-05-08T07:09:41.042Z,78.60
2023-05-08T07:10:40.992Z,78.63
2023-05-08T07:11:40.997Z,76.96
2023-05-08T07:12:41.090Z,77.70
2023-05-08T07:13:40.978Z,76.48
2023-05-08T07:14:40.960Z,75.02
2023-05-08T07:15:41.096Z,75.77
2023-05-08T07:16:40.967Z,75.77
2023-05-08T07:17:40.988Z,74.76
2023-05-08T07:18:40.992Z,75.09
2023-05-08T07:19:40.941Z,75.37
2023-05-08T07:20:40.913Z,74.41
2023-05-08T07:21:40.964Z,73.80
2023-05-08T07:22:40.904Z,76.04
2023-05-08T07:23:40.909Z,76.25
2023-05-08T07:24:40.871Z,75.57
2023-05-08T07:25:40.895Z,75.12
2023-05-08T07:26:40.888Z,73.87
2023-05-08T07:27:40.900Z,72.92
2023-05-08T07:28:40.846Z,74.82
2023-05-08T07:29:40.859Z,74.52
2023-05-08T07:30:40.842Z,74.38
2023-05-08T07:31:40.959Z,73.39
2023-05-08T07:32:40.876Z,73.06
2023-05-08T07:33:40.833Z,71.77
2023-05-08T07:34:40.837Z,71.70
2023-05-08T07:35:40.842Z,70.72
2023-05-08T07:36:40.789Z,70.79
2023-05-08T07:37:40.819Z,70.42
2023-05-08T07:38:40.781Z,71.20
2023-05-08T07:39:40.784Z,71.44
2023-05-08T07:40:40.763Z,71.44
2023-05-08T07:41:40.950Z,72.89
2023-05-08T07:42:40.753Z,71.73
2023-05-08T07:43:40.763Z,70.72
2023-05-08T07:44:53.615Z,72.04
2023-05-08T07:45:41.734Z,72.52
2023-05-08T07:46:40.753Z,72.31
2023-05-08T07:47:40.798Z,71.77
2023-05-08T07:48:40.719Z,69.20
2023-05-08T07:49:40.703Z,69.31
2023-05-08T07:50:40.730Z,71.70
2023-05-08T07:51:40.694Z,71.80
2023-05-08T07:52:40.677Z,73.60
2023-05-08T07:53:40.688Z,73.70
2023-05-08T07:54:40.654Z,70.18
2023-05-08T07:55:40.656Z,68.19
2023-05-08T07:56:40.648Z,67.69
2023-05-08T07:57:40.632Z,65.94
2023-05-08T07:58:40.626Z,66.11
2023-05-08T07:59:40.650Z,65.23
2023-05-08T08:00:40.611Z,65.40
2023-05-08T08:01:40.640Z,65.94
2023-05-08T08:02:40.695Z,66.21
2023-05-08T08:03:40.680Z,64.10
2023-05-08T08:04:40.571Z,62.73
2023-05-08T08:05:40.607Z,61.29
2023-05-08T08:06:40.562Z,62.29
2023-05-08T08:07:40.598Z,62.22
2023-05-08T08:08:40.534Z,62.35
2023-05-08T08:09:40.568Z,63.12
2023-05-08T08:10:40.523Z,63.70
2023-05-08T08:11:40.558Z,63.82
2023-05-08T08:12:40.543Z,65.67
2023-05-08T08:13:40.514Z,65.19
2023-05-08T08:14:40.514Z,67.65
2023-05-08T08:15:40.520Z,69.68
2023-05-08T08:16:40.501Z,70.83
2023-05-08T08:17:40.536Z,69.00
2023-05-08T08:18:40.469Z,68.36
2023-05-08T08:19:40.470Z,67.11
2023-05-08T08:20:40.451Z,66.55
2023-05-08T08:21:41.142Z,65.94
2023-05-08T08:22:40.547Z,64.43
2023-05-08T08:23:40.447Z,63.68
2023-05-08T08:24:40.444Z,66.30
2023-05-08T08:25:40.467Z,67.35
2023-05-08T08:26:40.398Z,67.99
2023-05-08T08:27:40.431Z,68.13
2023-05-08T08:28:40.395Z,66.85
2023-05-08T08:29:40.383Z,65.37
2023-05-08T08:30:40.355Z,63.90
2023-05-08T08:31:40.409Z,64.47
2023-05-08T08:32:40.416Z,65.84
2023-05-08T08:33:40.356Z,64.61
2023-05-08T08:34:40.369Z,64.47
2023-05-08T08:35:40.355Z,62.60
2023-05-08T08:36:40.309Z,62.68
2023-05-08T08:37:40.316Z,64.06
2023-05-08T08:38:40.420Z,64.13
2023-05-08T08:39:40.311Z,62.55
2023-05-08T08:40:40.283Z,61.37
2023-05-08T08:41:40.308Z,62.38
2023-05-08T08:42:40.256Z,62.65
2023-05-08T08:43:40.291Z,61.29
2023-05-08T08:44:40.245Z,59.95
2023-05-08T08:45:40.275Z,59.26
2023-05-08T08:46:40.427Z,58.42
2023-05-08T08:47:40.286Z,59.14
2023-05-08T08:48:40.224Z,61.79
2023-05-08T08:49:40.230Z,62.45
2023-05-08T08:50:40.201Z,61.21
2023-05-08T08:51:40.212Z,61.59
2023-05-08T08:52:40.175Z,61.82
2023-05-08T08:53:40.192Z,62.63
2023-05-08T08:54:40.278Z,62.43
2023-05-08T08:55:40.183Z,61.49
2023-05-08T08:56:40.152Z,59.92
2023-05-08T08:57:40.173Z,59.46
2023-05-08T08:58:40.128Z,57.74
2023-05-08T08:59:40.148Z,55.95
2023-05-08T09:00:40.115Z,56.15
2023-05-08T09:01:40.156Z,56.58
2023-05-08T09:02:40.234Z,57.68
2023-05-08T09:03:40.239Z,57.68
2023-05-08T09:04:40.088Z,56.43
2023-05-08T09:05:40.095Z,56.68
2023-05-08T09:06:40.074Z,57.44
2023-05-08T09:07:40.082Z,58.40
2023-05-08T09:08:40.065Z,59.00
2023-05-08T09:09:40.092Z,57.92
2023-05-08T09:10:40.166Z,58.77
2023-05-08T09:11:40.053Z,58.44
2023-05-08T09:12:40.081Z,56.81
2023-05-08T09:13:40.042Z,56.43
2023-05-08T09:14:40.019Z,56.88
2023-05-08T09:15:40.061Z,56.41
2023-05-08T09:16:40.062Z,59.43
2023-05-08T09:17:40.024Z,61.82
2023-05-08T09:18:39.989Z,61.57
2023-05-08T09:19:39.993Z,60.15
2023-05-08T09:20:39.980Z,57.81
2023-05-08T09:21:40.010Z,56.48
2023-05-08T09:22:39.958Z,56.98
2023-05-08T09:23:39.961Z,59.19
2023-05-08T09:24:39.944Z,57.54
2023-05-08T09:25:39.948Z,56.34
2023-05-08T09:26:40.025Z,57.82
2023-05-08T09:27:39.967Z,58.07
2023-05-08T09:28:39.916Z,59.72
2023-05-08T09:29:39.917Z,58.00
2023-05-08T09:30:39.895Z,56.76
2023-05-08T09:31:40.003Z,58.33
2023-05-08T09:32:40.001Z,56.98
2023-05-08T09:33:39.894Z,54.17
2023-05-08T09:34:39.870Z,54.90
2023-05-08T09:35:39.921Z,58.53
2023-05-08T09:36:39.865Z,58.20
2023-05-08T09:37:40.676Z,57.91
2023-05-08T09:38:39.863Z,56.52
2023-05-08T09:39:39.873Z,57.46
2023-05-08T09:40:39.832Z,56.17
2023-05-08T09:41:39.869Z,56.57
2023-05-08T09:42:39.840Z,55.13
2023-05-08T09:43:39.875Z,53.77
2023-05-08T09:44:39.803Z,52.67
2023-05-08T09:45:39.870Z,51.70
2023-05-08T09:46:39.837Z,54.67
2023-05-08T09:47:39.873Z,52.34
2023-05-08T09:48:39.778Z,55.17
2023-05-08T09:49:39.784Z,54.95
2023-05-08T09:50:40.996Z,55.05
2023-05-08T09:51:39.769Z,56.15
2023-05-08T09:52:39.772Z,54.70
2023-05-08T09:53:39.764Z,52.87
2023-05-08T09:54:39.737Z,52.87
2023-05-08T09:55:39.749Z,52.47
2023-05-08T09:56:40.096Z,55.93
2023-05-08T09:57:39.794Z,58.09
2023-05-08T09:58:39.842Z,56.35
2023-05-08T09:59:39.714Z,56.80
2023-05-08T10:00:39.711Z,54.82
2023-05-08T10:01:39.776Z,54.29
2023-05-08T10:02:39.724Z,54.22
2023-05-08T10:03:39.730Z,56.05
2023-05-08T10:04:39.750Z,56.58
2023-05-08T10:05:39.674Z,56.82
2023-05-08T10:06:39.656Z,58.14
2023-05-08T10:07:39.739Z,56.80
2023-05-08T10:08:39.665Z,54.37
2023-05-08T10:09:50.385Z,55.07
2023-05-08T10:10:41.179Z,56.52
2023-05-08T10:11:39.639Z,55.80
2023-05-08T10:12:39.633Z,54.82
2023-05-08T10:13:39.641Z,53.77
2023-05-08T10:14:39.732Z,55.00
2023-05-08T10:15:39.625Z,54.17
2023-05-08T10:16:39.631Z,54.05
2023-05-08T10:17:39.617Z,55.25
2023-05-08T10:18:39.595Z,58.33
2023-05-08T10:19:39.617Z,56.77
2023-05-08T10:20:39.567Z,56.13
2023-05-08T10:21:39.574Z,57.66
2023-05-08T10:22:39.549Z,54.62
2023-05-08T10:23:39.576Z,57.91
2023-05-08T10:24:39.548Z,57.13
2023-05-08T10:25:39.548Z,54.22
2023-05-08T10:26:40.871Z,52.59
2023-05-08T10:27:39.534Z,51.97
2023-05-08T10:28:39.531Z,52.07
2023-05-08T10:29:39.515Z,54.43
2023-05-08T10:30:39.615Z,55.38
2023-05-08T10:31:39.511Z,56.38
2023-05-08T10:32:39.625Z,55.32
2023-05-08T10:33:39.683Z,56.17
2023-05-08T10:34:39.461Z,54.74
2023-05-08T10:35:39.465Z,57.48
2023-05-08T10:36:40.192Z,54.05
2023-05-08T10:37:39.464Z,55.69
2023-05-08T10:38:39.435Z,55.44
2023-05-08T10:39:39.458Z,57.48
2023-05-08T10:40:39.424Z,54.55
2023-05-08T10:41:39.454Z,53.32
2023-05-08T10:42:39.415Z,52.29
2023-05-08T10:43:39.425Z,51.29
2023-05-08T10:44:39.394Z,52.27
2023-05-08T10:45:39.416Z,50.67
2023-05-08T10:46:39.532Z,50.92
2023-05-08T10:47:39.486Z,51.10
2023-05-08T10:48:39.378Z,50.45
2023-05-08T10:49:39.376Z,48.80
2023-05-08T10:50:39.350Z,49.10
2023-05-08T10:51:39.481Z,51.15
2023-05-08T10:52:39.344Z,52.87
2023-05-08T10:53:39.375Z,52.00
2023-05-08T10:54:39.346Z,50.87
2023-05-08T10:55:39.336Z,51.94
2023-05-08T10:56:39.316Z,49.63
2023-05-08T10:57:39.323Z,47.27
2023-05-08T10:58:39.368Z,46.57
2023-05-08T10:59:39.325Z,47.44
2023-05-08T11:00:39.309Z,50.65
2023-05-08T11:01:39.335Z,53.30
2023-05-08T11:02:39.340Z,54.39
2023-05-08T11:03:39.405Z,54.30
2023-05-08T11:04:39.388Z,54.27
2023-05-08T11:05:39.277Z,51.75
2023-05-08T11:06:39.238Z,50.85
2023-05-08T11:07:40.744Z,48.97
2023-05-08T11:08:39.227Z,53.04
2023-05-08T11:09:39.256Z,51.25
2023-05-08T11:10:39.215Z,51.40
2023-05-08T11:11:39.235Z,49.15
2023-05-08T11:12:39.269Z,48.91
2023-05-08T11:13:39.202Z,48.34
2023-05-08T11:14:39.211Z,48.02
2023-05-08T11:15:39.197Z,48.71
2023-05-08T11:16:39.352Z,51.52
2023-05-08T11:17:39.220Z,51.22
2023-05-08T11:18:49.178Z,51.77
2023-05-08T11:19:40.193Z,51.02
2023-05-08T11:20:39.147Z,50.82
2023-05-08T11:21:39.160Z,48.61
2023-05-08T11:22:39.119Z,48.68
2023-05-08T11:23:39.153Z,48.98
2023-05-08T11:24:39.160Z,48.41
2023-05-08T11:25:39.124Z,49.58
2023-05-08T11:26:39.121Z,47.69
2023-05-08T11:27:39.134Z,50.82
2023-05-08T11:28:39.090Z,54.35
2023-05-08T11:29:39.103Z,54.67
2023-05-08T11:30:39.168Z,54.17
2023-05-08T11:31:39.160Z,53.57
2023-05-08T11:32:39.106Z,53.05
2023-05-08T11:33:39.113Z,55.05
2023-05-08T11:34:39.140Z,53.92
2023-05-08T11:35:39.051Z,53.27
2023-05-08T11:36:39.027Z,52.92
2023-05-08T11:37:39.043Z,54.22
2023-05-08T11:38:39.038Z,52.47
2023-05-08T11:39:39.034Z,53.64
2023-05-08T11:40:39.010Z,54.22
2023-05-08T11:41:39.027Z,53.92
2023-05-08T11:42:38.991Z,54.39
2023-05-08T11:43:39.006Z,55.67
2023-05-08T11:44:38.996Z,54.94
2023-05-08T11:45:38.996Z,55.85
2023-05-08T11:46:38.984Z,57.20
2023-05-08T11:47:38.996Z,54.02
2023-05-08T11:48:38.973Z,53.17
2023-05-08T11:49:38.987Z,51.75
2023-05-08T11:50:38.929Z,52.89
2023-05-08T11:51:38.980Z,54.90
2023-05-08T11:52:38.921Z,55.07
2023-05-08T11:53:38.921Z,56.45
2023-05-08T11:54:38.911Z,54.55
2023-05-08T11:55:38.914Z,54.77
2023-05-08T11:56:38.896Z,55.37
2023-05-08T11:57:38.946Z,56.05
2023-05-08T11:58:38.889Z,54.94
2023-05-08T11:59:38.893Z,54.85
2023-05-08T12:00:38.882Z,55.36
2023-05-08T12:01:38.874Z,54.06
2023-05-08T12:02:38.966Z,55.07
2023-05-08T12:03:39.100Z,54.06
2023-05-08T12:04:38.877Z,53.34
2023-05-08T12:05:38.845Z,53.82
2023-05-08T12:06:38.816Z,55.05
2023-05-08T12:07:38.834Z,53.09
2023-05-08T12:08:38.831Z,53.82
2023-05-08T12:09:38.846Z,54.02
2023-05-08T12:10:38.777Z,55.62
2023-05-08T12:11:38.794Z,57.02
2023-05-08T12:12:38.793Z,53.14
2023-05-08T12:13:38.781Z,54.85
2023-05-08T12:14:38.764Z,54.57
2023-05-08T12:15:38.815Z,52.52
2023-05-08T12:16:38.827Z,51.62
2023-05-08T12:17:38.788Z,53.84
2023-05-08T12:18:39.849Z,53.17
2023-05-08T12:19:38.744Z,52.94
2023-05-08T12:20:38.711Z,51.42
2023-05-08T12:21:38.737Z,53.42
2023-05-08T12:22:38.887Z,50.79
2023-05-08T12:23:38.716Z,49.87
2023-05-08T12:24:38.693Z,53.96
2023-05-08T12:25:38.712Z,52.89
2023-05-08T12:26:38.755Z,52.07
2023-05-08T12:27:38.705Z,52.82
2023-05-08T12:28:38.658Z,53.39
2023-05-08T12:29:38.696Z,52.39
2023-05-08T12:30:38.645Z,54.17
2023-05-08T12:31:38.731Z,54.67
2023-05-08T12:32:38.674Z,51.07
2023-05-08T12:33:38.672Z,54.52
2023-05-08T12:34:38.642Z,55.09
2023-05-08T12:35:38.636Z,53.37
2023-05-08T12:36:38.608Z,53.32
2023-05-08T12:37:38.632Z,53.77
2023-05-08T12:38:38.708Z,55.05
2023-05-08T12:39:38.638Z,54.27
2023-05-08T12:40:38.594Z,54.94
2023-05-08T12:41:38.610Z,57.82
2023-05-08T12:42:38.589Z,54.69
2023-05-08T12:43:38.580Z,54.47
2023-05-08T12:44:38.599Z,51.57
2023-05-08T12:45:38.586Z,51.77
2023-05-08T12:46:38.566Z,51.47
2023-05-08T12:47:38.650Z,54.44
2023-05-08T12:48:38.578Z,50.87
2023-05-08T12:49:38.576Z,50.62
2023-05-08T12:50:38.565Z,54.94
2023-05-08T12:51:38.516Z,51.44
2023-05-08T12:52:38.496Z,52.72